Time;durP1;ratioP1;P1;durP2;ratioP2;P2;SDS_P1;SDS_P2;PMS_P1;PMS_P2;Temp;Humidity;BMP_temperature;BMP_pressure;BME280_temperature;BME280_humidity;BME280_pressure;Samples;Min_cycle;Max_cycle;Signal;HPM_P1;HPM_P2
2023/01/01 00:00:08;;;;;;;;;;;10.50;99.90;;;;;;5023053;28;20253;-86
2023/01/01 00:02:38;;;;;;;;;;;10.50;99.90;;;;;;5015965;28;20439;-84
2023/01/01 00:05:11;;;;;;;;;;;10.50;99.90;;;;;;5021235;28;20269;-84
2023/01/01 00:07:41;;;;;;;;;;;10.50;99.90;;;;;;5020232;28;19938;-86
2023/01/01 00:10:27;;;;;;;;;;;10.50;99.90;;;;;;5024949;28;20040;-86
2023/01/01 00:12:58;;;;;;;;;;;10.50;99.90;;;;;;5017435;28;19952;-86
2023/01/01 00:15:33;;;;;;;;;;;10.50;99.90;;;;;;5019938;28;19933;-85
2023/01/01 00:18:02;;;;;;;;;;;10.40;99.90;;;;;;5018528;28;19948;-89
2023/01/01 00:20:28;;;;;;;;;;;10.40;99.90;;;;;;5011582;28;20044;-88
2023/01/01 00:22:55;;;;;;;;;;;10.40;99.90;;;;;;5008089;28;19926;-84
2023/01/01 00:25:22;;;;;;;;;;;10.40;99.90;;;;;;5016182;28;19940;-88
2023/01/01 00:27:49;;;;;;;;;;;10.40;99.90;;;;;;5015700;28;20306;-88
2023/01/01 00:30:19;;;;;;;;;;;10.40;99.90;;;;;;5016358;28;19961;-84
2023/01/01 00:33:05;;;;;;;;;;;10.40;99.90;;;;;;5019393;28;20381;-86
2023/01/01 00:35:33;;;;;;;;;;;10.40;99.90;;;;;;5032821;28;20372;-87
2023/01/01 00:38:00;;;;;;;;;;;10.40;99.90;;;;;;4997558;28;19933;-88
2023/01/01 00:40:31;;;;;;;;;;;10.30;99.90;;;;;;5021245;28;19929;-86
2023/01/01 00:42:58;;;;;;;;;;;10.30;99.90;;;;;;5008123;28;20683;-85
2023/01/01 00:45:25;;;;;;;;;;;10.30;99.90;;;;;;5016100;28;19932;-86
2023/01/01 00:47:53;;;;;;;;;;;10.30;99.90;;;;;;5001766;28;19932;-85
2023/01/01 00:50:26;;;;;;;;;;;10.40;99.90;;;;;;5028124;28;19925;-89
2023/01/01 00:52:59;;;;;;;;;;;10.30;99.90;;;;;;5014519;28;19985;-87
2023/01/01 00:55:28;;;;;;;;;;;10.30;99.90;;;;;;5004567;28;20395;-88
2023/01/01 00:57:57;;;;;;;;;;;10.30;99.90;;;;;;5022172;28;19933;-88
2023/01/01 01:00:24;;;;;;;;;;;10.30;99.90;;;;;;5001336;28;19985;-87
2023/01/01 01:02:51;;;;;;;;;;;10.30;99.90;;;;;;5020765;28;19932;-87
2023/01/01 01:05:18;;;;;;;;;;;10.20;99.90;;;;;;5009444;28;19980;-85
2023/01/01 01:07:46;;;;;;;;;;;10.20;99.90;;;;;;5025387;28;19976;-88
2023/01/01 01:10:14;;;;;;;;;;;10.20;99.90;;;;;;5018845;28;19933;-86
2023/01/01 01:12:41;;;;;;;;;;;10.20;99.90;;;;;;5006412;28;19925;-86
2023/01/01 01:15:12;;;;;;;;;;;10.20;99.90;;;;;;5018953;28;19976;-85
2023/01/01 01:17:43;;;;;;;;;;;10.20;99.90;;;;;;5017373;28;19985;-86
2023/01/01 01:20:13;;;;;;;;;;;10.20;99.90;;;;;;5012922;28;19952;-85
2023/01/01 01:22:40;;;;;;;;;;;10.20;99.90;;;;;;5016702;28;20408;-86
2023/01/01 01:25:09;;;;;;;;;;;10.10;99.90;;;;;;5012629;28;19965;-89
2023/01/01 01:27:37;;;;;;;;;;;10.10;99.90;;;;;;5022626;28;19997;-88
2023/01/01 01:30:04;;;;;;;;;;;10.10;99.90;;;;;;5024508;28;19944;-88
2023/01/01 01:32:31;;;;;;;;;;;10.10;99.90;;;;;;5013803;28;19936;-88
2023/01/01 01:35:01;;;;;;;;;;;10.10;99.90;;;;;;5012618;28;19925;-85
2023/01/01 01:37:28;;;;;;;;;;;10.10;99.90;;;;;;5025016;28;20319;-87
2023/01/01 01:39:55;;;;;;;;;;;10.10;99.90;;;;;;5016365;28;19937;-88
2023/01/01 01:42:24;;;;;;;;;;;10.10;99.90;;;;;;5019561;28;19925;-88
2023/01/01 01:44:52;;;;;;;;;;;10.10;99.90;;;;;;5018756;28;19957;-87
2023/01/01 01:47:22;;;;;;;;;;;10.10;99.90;;;;;;5019517;28;19925;-85
2023/01/01 01:49:52;;;;;;;;;;;10.10;99.90;;;;;;5019268;28;20004;-86
2023/01/01 01:52:21;;;;;;;;;;;10.10;99.90;;;;;;5012286;28;19933;-89
2023/01/01 01:54:48;;;;;;;;;;;10.10;99.90;;;;;;5018928;28;19997;-87
2023/01/01 01:57:15;;;;;;;;;;;10.10;99.90;;;;;;5018689;28;20426;-88
2023/01/01 01:59:48;;;;;;;;;;;10.00;99.90;;;;;;5016959;28;19953;-85
2023/01/01 02:02:16;;;;;;;;;;;10.00;99.90;;;;;;5015800;28;19968;-88
2023/01/01 02:04:44;;;;;;;;;;;10.00;99.90;;;;;;5020740;28;19926;-89
2023/01/01 02:07:12;;;;;;;;;;;10.00;99.90;;;;;;5006842;28;19935;-87
2023/01/01 02:09:39;;;;;;;;;;;10.00;99.90;;;;;;5015221;28;19973;-88
2023/01/01 02:12:06;;;;;;;;;;;10.00;99.90;;;;;;5013876;28;19951;-85
2023/01/01 02:14:35;;;;;;;;;;;10.00;99.90;;;;;;5008926;28;19929;-88
2023/01/01 02:17:11;;;;;;;;;;;10.00;99.90;;;;;;5021774;28;21413;-88
2023/01/01 02:19:44;;;;;;;;;;;10.00;99.90;;;;;;5012605;28;20363;-86
2023/01/01 02:22:14;;;;;;;;;;;10.00;99.90;;;;;;5020204;28;19948;-86
2023/01/01 02:24:56;;;;;;;;;;;9.90;99.90;;;;;;5021355;28;20013;-89
2023/01/01 02:27:28;;;;;;;;;;;9.90;99.90;;;;;;5005084;28;19930;-84
2023/01/01 02:30:00;;;;;;;;;;;9.90;99.90;;;;;;5010739;28;19929;-89
2023/01/01 02:32:34;;;;;;;;;;;9.90;99.90;;;;;;5015303;28;19930;-87
2023/01/01 02:35:33;;;;;;;;;;;9.90;99.90;;;;;;5021996;28;20359;-86
2023/01/01 02:37:52;;;;;;;;;;;9.90;99.90;;;;;;5001260;28;19941;-85
2023/01/01 02:40:21;;;;;;;;;;;9.90;99.90;;;;;;5018448;28;19925;-86
2023/01/01 02:42:48;;;;;;;;;;;9.90;99.90;;;;;;5013471;28;20028;-86
2023/01/01 02:45:16;;;;;;;;;;;9.80;99.90;;;;;;5016947;28;20364;-86
2023/01/01 02:47:43;;;;;;;;;;;9.80;99.90;;;;;;5016907;28;19980;-88
2023/01/01 02:50:12;;;;;;;;;;;9.80;99.90;;;;;;5015583;28;20424;-85
2023/01/01 02:52:53;;;;;;;;;;;9.80;99.90;;;;;;5019129;28;19937;-87
2023/01/01 02:55:27;;;;;;;;;;;9.80;99.90;;;;;;5012733;28;19936;-88
2023/01/01 03:00:17;;;;;;;;;;;9.80;99.90;;;;;;5019976;28;19933;-85
2023/01/01 03:00:46;;;;;;;;;;;9.80;99.90;;;;;;5019742;28;20227;-88
2023/01/01 03:03:16;;;;;;;;;;;9.80;99.90;;;;;;5026758;28;19926;-88
2023/01/01 03:08:44;;;;;;;;;;;9.80;99.90;;;;;;5016708;28;19961;-84
2023/01/01 03:11:13;;;;;;;;;;;9.70;99.90;;;;;;5019962;28;19926;-88
2023/01/01 03:13:43;;;;;;;;;;;9.70;99.90;;;;;;5014352;28;19952;-85
2023/01/01 03:16:14;;;;;;;;;;;9.70;99.90;;;;;;5018757;28;19994;-88
2023/01/01 03:18:44;;;;;;;;;;;9.70;99.90;;;;;;5018735;28;19925;-86
2023/01/01 03:23:55;;;;;;;;;;;9.70;99.90;;;;;;5014952;28;19959;-86
2023/01/01 03:26:23;;;;;;;;;;;9.70;99.90;;;;;;5016879;28;19949;-85
2023/01/01 03:28:52;;;;;;;;;;;9.70;99.90;;;;;;5019192;28;19934;-86
2023/01/01 03:31:21;;;;;;;;;;;9.70;99.90;;;;;;5021417;28;19932;-86
2023/01/01 03:33:50;;;;;;;;;;;9.70;99.90;;;;;;5013059;28;19930;-86
2023/01/01 03:36:19;;;;;;;;;;;9.60;99.90;;;;;;5016813;28;20404;-88
2023/01/01 03:38:48;;;;;;;;;;;9.60;99.90;;;;;;5015819;28;19925;-87
2023/01/01 03:41:23;;;;;;;;;;;9.60;99.90;;;;;;5002130;28;19979;-90
2023/01/01 03:43:51;;;;;;;;;;;9.60;99.90;;;;;;5018197;28;19952;-87
2023/01/01 03:46:20;;;;;;;;;;;9.60;99.90;;;;;;5027309;28;20002;-89
2023/01/01 03:48:59;;;;;;;;;;;9.60;99.90;;;;;;5019874;28;19926;-89
2023/01/01 03:51:29;;;;;;;;;;;9.60;99.90;;;;;;5015488;28;19957;-89
2023/01/01 03:53:57;;;;;;;;;;;9.60;99.90;;;;;;5000514;28;19929;-87
2023/01/01 03:56:32;;;;;;;;;;;9.60;99.90;;;;;;5018200;28;19959;-88
2023/01/01 03:59:08;;;;;;;;;;;9.60;99.90;;;;;;4998720;28;19933;-87
2023/01/01 04:01:43;;;;;;;;;;;9.60;99.90;;;;;;5012457;28;19959;-86
2023/01/01 04:04:15;;;;;;;;;;;9.50;99.90;;;;;;5015603;28;19929;-89
2023/01/01 04:06:42;;;;;;;;;;;9.50;99.90;;;;;;5011121;28;19932;-88
2023/01/01 04:09:14;;;;;;;;;;;9.50;99.90;;;;;;5015402;28;19937;-86
2023/01/01 04:14:28;;;;;;;;;;;9.50;99.90;;;;;;5008328;28;19929;-85
2023/01/01 04:16:58;;;;;;;;;;;9.50;99.90;;;;;;5017723;28;20307;-85
2023/01/01 04:19:32;;;;;;;;;;;9.50;99.90;;;;;;5016039;28;19926;-87
2023/01/01 04:22:01;;;;;;;;;;;9.50;99.90;;;;;;5022994;28;19934;-87
2023/01/01 04:24:30;;;;;;;;;;;9.50;99.90;;;;;;5007100;28;19995;-84
2023/01/01 04:27:05;;;;;;;;;;;9.40;99.90;;;;;;5019923;28;19926;-89
2023/01/01 04:29:36;;;;;;;;;;;9.40;99.90;;;;;;5021433;28;19926;-87
2023/01/01 04:32:15;;;;;;;;;;;9.40;99.90;;;;;;5023164;28;19960;-84
2023/01/01 04:34:57;;;;;;;;;;;9.40;99.90;;;;;;5011198;28;19926;-85
2023/01/01 04:37:28;;;;;;;;;;;9.40;99.90;;;;;;5015816;28;19926;-85
2023/01/01 04:40:10;;;;;;;;;;;9.40;99.90;;;;;;5018686;28;19934;-86
2023/01/01 04:42:47;;;;;;;;;;;9.40;99.90;;;;;;5010892;28;19996;-88
2023/01/01 04:45:21;;;;;;;;;;;9.40;99.90;;;;;;5017845;28;19914;-86
2023/01/01 04:47:52;;;;;;;;;;;9.30;99.90;;;;;;5013953;28;19929;-86
2023/01/01 04:50:23;;;;;;;;;;;9.30;99.90;;;;;;5023466;28;19952;-88
2023/01/01 04:52:52;;;;;;;;;;;9.30;99.90;;;;;;5016342;28;19929;-85
2023/01/01 04:55:22;;;;;;;;;;;9.30;99.90;;;;;;5032524;28;19929;-88
2023/01/01 04:57:52;;;;;;;;;;;9.30;99.90;;;;;;5002469;28;19925;-86
2023/01/01 05:00:23;;;;;;;;;;;9.30;99.90;;;;;;5010386;28;19933;-88
2023/01/01 05:02:54;;;;;;;;;;;9.30;99.90;;;;;;5009044;28;19925;-87
2023/01/01 05:05:24;;;;;;;;;;;9.30;99.90;;;;;;5018178;28;19984;-87
2023/01/01 05:07:53;;;;;;;;;;;9.30;99.90;;;;;;5015829;28;19929;-87
2023/01/01 05:10:30;;;;;;;;;;;9.20;99.90;;;;;;5023434;28;19969;-88
2023/01/01 05:12:57;;;;;;;;;;;9.20;99.90;;;;;;5016186;28;19961;-86
2023/01/01 05:15:24;;;;;;;;;;;9.20;99.90;;;;;;5020815;28;19965;-87
2023/01/01 05:17:53;;;;;;;;;;;9.20;99.90;;;;;;5018536;28;19934;-86
2023/01/01 05:20:22;;;;;;;;;;;9.20;99.90;;;;;;5018234;28;19976;-89
2023/01/01 05:22:50;;;;;;;;;;;9.30;99.90;;;;;;5021161;28;19980;-84
2023/01/01 05:25:24;;;;;;;;;;;9.20;99.90;;;;;;5019953;28;20252;-85
2023/01/01 05:27:58;;;;;;;;;;;9.20;99.90;;;;;;5027062;28;19933;-85
2023/01/01 05:30:25;;;;;;;;;;;9.20;99.90;;;;;;5020885;28;19926;-85
2023/01/01 05:33:03;;;;;;;;;;;9.20;99.90;;;;;;5025485;28;19925;-87
2023/01/01 05:35:31;;;;;;;;;;;9.20;99.90;;;;;;5021336;28;20300;-85
2023/01/01 05:38:08;;;;;;;;;;;9.20;99.90;;;;;;5018330;28;19972;-87
2023/01/01 05:40:40;;;;;;;;;;;9.20;99.90;;;;;;5015460;28;19926;-85
2023/01/01 05:43:15;;;;;;;;;;;9.10;99.90;;;;;;5016578;28;19952;-87
2023/01/01 05:45:43;;;;;;;;;;;9.10;99.90;;;;;;5016891;28;19960;-90
2023/01/01 05:48:14;;;;;;;;;;;9.10;99.90;;;;;;5014421;28;19930;-87
2023/01/01 05:50:46;;;;;;;;;;;9.10;99.90;;;;;;5018037;28;19933;-87
2023/01/01 05:53:13;;;;;;;;;;;9.10;99.90;;;;;;5021622;28;19932;-89
2023/01/01 05:55:43;;;;;;;;;;;9.10;99.90;;;;;;5018819;28;22345;-86
2023/01/01 05:58:10;;;;;;;;;;;9.10;99.90;;;;;;5022282;28;20427;-85
2023/01/01 06:00:36;;;;;;;;;;;9.10;99.90;;;;;;5016729;28;19925;-86
2023/01/01 06:03:03;;;;;;;;;;;9.10;99.90;;;;;;5018810;28;19933;-86
2023/01/01 06:05:33;;;;;;;;;;;9.00;99.90;;;;;;5000016;28;19956;-88
2023/01/01 06:08:02;;;;;;;;;;;9.00;99.90;;;;;;5005058;28;19936;-87
2023/01/01 06:10:29;;;;;;;;;;;9.00;99.90;;;;;;4999383;28;19926;-88
2023/01/01 06:13:06;;;;;;;;;;;9.00;99.90;;;;;;5020727;28;19932;-87
2023/01/01 06:15:33;;;;;;;;;;;9.00;99.90;;;;;;5014830;28;19973;-86
2023/01/01 06:18:01;;;;;;;;;;;9.00;99.90;;;;;;5020026;28;19925;-86
2023/01/01 06:20:27;;;;;;;;;;;9.00;99.90;;;;;;5003726;28;19925;-88
2023/01/01 06:22:54;;;;;;;;;;;9.00;99.90;;;;;;5020229;28;19932;-86
2023/01/01 06:25:21;;;;;;;;;;;9.00;99.90;;;;;;5019767;28;19926;-85
2023/01/01 06:27:48;;;;;;;;;;;9.00;99.90;;;;;;5005244;28;19949;-87
2023/01/01 06:30:16;;;;;;;;;;;9.00;99.90;;;;;;5020120;28;20031;-84
2023/01/01 06:32:43;;;;;;;;;;;9.00;99.90;;;;;;5007045;28;19930;-89
2023/01/01 06:35:10;;;;;;;;;;;8.90;99.90;;;;;;5016438;28;19936;-89
2023/01/01 06:37:37;;;;;;;;;;;9.00;99.90;;;;;;5016492;28;19932;-87
2023/01/01 06:40:04;;;;;;;;;;;8.90;99.90;;;;;;5019509;28;20486;-87
2023/01/01 06:42:31;;;;;;;;;;;8.90;99.90;;;;;;5015592;28;19926;-87
2023/01/01 06:44:58;;;;;;;;;;;8.90;99.90;;;;;;5018278;28;19956;-90
2023/01/01 06:47:28;;;;;;;;;;;8.90;99.90;;;;;;5022702;28;19936;-85
2023/01/01 06:49:55;;;;;;;;;;;8.90;99.90;;;;;;5020023;28;19985;-87
2023/01/01 06:52:22;;;;;;;;;;;8.90;99.90;;;;;;5025014;28;19925;-84
2023/01/01 06:54:54;;;;;;;;;;;8.90;99.90;;;;;;5015553;28;20347;-89
2023/01/01 06:57:21;;;;;;;;;;;8.80;99.90;;;;;;5014695;28;19926;-88
2023/01/01 07:02:36;;;;;;;;;;;8.80;99.90;;;;;;5016903;28;19925;-87
2023/01/01 07:05:14;;;;;;;;;;;8.80;99.90;;;;;;5016715;28;19925;-85
2023/01/01 07:07:41;;;;;;;;;;;8.80;99.90;;;;;;5018799;28;19925;-84
2023/01/01 07:10:15;;;;;;;;;;;8.80;99.90;;;;;;5021096;28;19925;-90
2023/01/01 07:12:43;;;;;;;;;;;8.80;99.90;;;;;;5020004;28;19929;-90
2023/01/01 07:15:10;;;;;;;;;;;8.80;99.90;;;;;;5002215;28;19936;-84
2023/01/01 07:17:41;;;;;;;;;;;8.80;99.90;;;;;;5021462;28;19948;-88
2023/01/01 07:20:11;;;;;;;;;;;8.80;99.90;;;;;;5019348;28;20028;-85
2023/01/01 07:22:49;;;;;;;;;;;8.80;99.90;;;;;;5026326;28;19925;-85
2023/01/01 07:25:20;;;;;;;;;;;8.80;99.90;;;;;;5020172;28;19925;-86
2023/01/01 07:27:53;;;;;;;;;;;8.70;99.90;;;;;;4937104;23;3794645;-91
2023/01/01 07:30:22;;;;;;;;;;;8.70;99.90;;;;;;5039426;28;19931;-90
2023/01/01 07:33:01;;;;;;;;;;;8.70;99.90;;;;;;5048553;28;19913;-88
2023/01/01 07:35:28;;;;;;;;;;;8.70;99.90;;;;;;5034831;28;19925;-89
2023/01/01 07:37:57;;;;;;;;;;;8.70;99.90;;;;;;5028099;28;19933;-86
2023/01/01 07:40:28;;;;;;;;;;;8.70;99.90;;;;;;5022446;28;19936;-89
2023/01/01 07:42:57;;;;;;;;;;;8.70;99.90;;;;;;5024766;28;19956;-87
2023/01/01 07:45:27;;;;;;;;;;;8.70;99.90;;;;;;5021526;28;19929;-88
2023/01/01 07:47:58;;;;;;;;;;;8.70;99.90;;;;;;5027498;28;20522;-87
2023/01/01 07:50:26;;;;;;;;;;;8.70;99.90;;;;;;5025976;28;19925;-88
2023/01/01 07:52:53;;;;;;;;;;;8.70;99.90;;;;;;5019495;28;19909;-89
2023/01/01 07:55:23;;;;;;;;;;;8.70;99.90;;;;;;5021897;28;20332;-87
2023/01/01 07:58:04;;;;;;;;;;;8.70;99.90;;;;;;5024803;28;19929;-87
2023/01/01 08:00:41;;;;;;;;;;;8.70;99.90;;;;;;5029503;28;20025;-86
2023/01/01 08:03:10;;;;;;;;;;;8.70;99.90;;;;;;5036989;28;19948;-84
2023/01/01 08:05:40;;;;;;;;;;;8.70;99.90;;;;;;5028871;28;20399;-86
2023/01/01 08:08:12;;;;;;;;;;;8.70;99.90;;;;;;5026670;28;19930;-90
2023/01/01 08:10:42;;;;;;;;;;;8.70;99.90;;;;;;5026995;28;19926;-86
2023/01/01 08:13:10;;;;;;;;;;;8.70;99.90;;;;;;5026463;28;19937;-87
2023/01/01 08:15:38;;;;;;;;;;;8.70;99.90;;;;;;5022596;28;19934;-85
2023/01/01 08:18:09;;;;;;;;;;;8.70;99.90;;;;;;5025286;28;19930;-88
2023/01/01 08:20:40;;;;;;;;;;;8.70;99.90;;;;;;5024615;28;20020;-89
2023/01/01 08:23:14;;;;;;;;;;;8.70;99.90;;;;;;5023276;28;19936;-85
2023/01/01 08:25:51;;;;;;;;;;;8.80;99.90;;;;;;5026668;28;19940;-85
2023/01/01 08:28:20;;;;;;;;;;;8.70;99.90;;;;;;5025055;28;19929;-89
2023/01/01 08:30:59;;;;;;;;;;;8.80;99.90;;;;;;5044612;28;19926;-89
2023/01/01 08:33:28;;;;;;;;;;;8.70;99.90;;;;;;5016549;28;21200;-88
2023/01/01 08:36:00;;;;;;;;;;;8.80;99.90;;;;;;5028926;28;19925;-87
2023/01/01 08:38:38;;;;;;;;;;;8.80;99.90;;;;;;5028071;28;20434;-85
2023/01/01 08:41:05;;;;;;;;;;;8.80;99.90;;;;;;5041290;28;19925;-83
2023/01/01 08:43:38;;;;;;;;;;;8.80;99.90;;;;;;5025876;28;19940;-88
2023/01/01 08:46:28;;;;;;;;;;;8.80;99.90;;;;;;5021807;28;19926;-84
2023/01/01 08:48:55;;;;;;;;;;;8.90;99.90;;;;;;5021581;28;19979;-86
2023/01/01 08:51:32;;;;;;;;;;;9.00;99.90;;;;;;5026487;28;20499;-85
2023/01/01 08:54:02;;;;;;;;;;;9.00;99.90;;;;;;5022674;28;19949;-87
2023/01/01 08:56:32;;;;;;;;;;;9.10;99.90;;;;;;5020373;28;19925;-85
2023/01/01 08:59:06;;;;;;;;;;;9.10;99.90;;;;;;5017179;28;20044;-85
2023/01/01 09:01:36;;;;;;;;;;;9.20;99.90;;;;;;5017902;28;20017;-89
2023/01/01 09:04:06;;;;;;;;;;;9.20;99.90;;;;;;5025824;28;20402;-88
2023/01/01 09:06:35;;;;;;;;;;;9.30;99.90;;;;;;5024018;28;19930;-87
2023/01/01 09:09:09;;;;;;;;;;;9.30;99.90;;;;;;5039551;28;20048;-89
2023/01/01 09:11:55;;;;;;;;;;;9.30;99.90;;;;;;5023174;28;19949;-85
2023/01/01 09:14:32;;;;;;;;;;;9.40;99.90;;;;;;5034304;28;19925;-85
2023/01/01 09:17:07;;;;;;;;;;;9.40;99.90;;;;;;5022600;28;19925;-86
2023/01/01 09:19:38;;;;;;;;;;;9.40;99.90;;;;;;5037632;28;19929;-86
2023/01/01 09:22:12;;;;;;;;;;;9.40;99.90;;;;;;5021003;28;20482;-88
2023/01/01 09:24:46;;;;;;;;;;;9.40;99.90;;;;;;5016924;28;19937;-88
2023/01/01 09:27:16;;;;;;;;;;;9.40;99.90;;;;;;5035952;28;19933;-86
2023/01/01 09:29:47;;;;;;;;;;;9.40;99.90;;;;;;5023608;28;20284;-87
2023/01/01 09:32:20;;;;;;;;;;;9.40;99.90;;;;;;5036101;28;19985;-84
2023/01/01 09:34:56;;;;;;;;;;;9.50;99.90;;;;;;5019244;28;19948;-88
2023/01/01 09:37:28;;;;;;;;;;;9.50;99.90;;;;;;5038092;28;19929;-89
2023/01/01 09:39:55;;;;;;;;;;;9.50;99.90;;;;;;5027475;28;19952;-88
2023/01/01 09:42:44;;;;;;;;;;;9.60;99.90;;;;;;5016985;28;19948;-85
2023/01/01 09:45:18;;;;;;;;;;;9.60;99.90;;;;;;5019772;28;19956;-85
2023/01/01 09:47:53;;;;;;;;;;;9.60;99.90;;;;;;5022858;28;19936;-89
2023/01/01 09:50:34;;;;;;;;;;;9.60;99.90;;;;;;5010779;28;19964;-86
2023/01/01 09:53:30;;;;;;;;;;;9.70;99.90;;;;;;5015105;28;19925;-85
2023/01/01 09:56:00;;;;;;;;;;;9.70;99.90;;;;;;5020092;28;20212;-87
2023/01/01 09:58:42;;;;;;;;;;;9.70;99.90;;;;;;5024642;28;19926;-87
2023/01/01 10:01:20;;;;;;;;;;;9.80;99.90;;;;;;5021123;28;19925;-85
2023/01/01 10:03:55;;;;;;;;;;;9.80;99.90;;;;;;5022744;28;19996;-89
2023/01/01 10:06:26;;;;;;;;;;;9.80;99.90;;;;;;5017721;28;19940;-88
2023/01/01 10:09:07;;;;;;;;;;;9.80;99.90;;;;;;5022134;28;19925;-87
2023/01/01 10:11:45;;;;;;;;;;;9.80;99.90;;;;;;5014717;28;19933;-89
2023/01/01 10:14:26;;;;;;;;;;;9.90;99.90;;;;;;5016090;28;19932;-87
2023/01/01 10:16:56;;;;;;;;;;;9.90;99.90;;;;;;5013031;28;19937;-85
2023/01/01 10:19:26;;;;;;;;;;;9.90;99.90;;;;;;5017539;28;19960;-86
2023/01/01 10:22:06;;;;;;;;;;;10.00;99.90;;;;;;5007552;28;19937;-85
2023/01/01 10:24:42;;;;;;;;;;;10.00;99.90;;;;;;5012559;28;19934;-89
2023/01/01 10:27:26;;;;;;;;;;;10.00;99.90;;;;;;5011759;28;19980;-83
2023/01/01 10:29:53;;;;;;;;;;;10.10;99.90;;;;;;5006321;28;20336;-88
2023/01/01 10:32:21;;;;;;;;;;;10.10;99.90;;;;;;5003630;28;20013;-87
2023/01/01 10:34:49;;;;;;;;;;;10.10;99.90;;;;;;5011403;28;19983;-89
2023/01/01 10:37:16;;;;;;;;;;;10.10;99.90;;;;;;5001204;28;19995;-85
2023/01/01 10:39:54;;;;;;;;;;;10.10;99.90;;;;;;5018939;28;19933;-88
2023/01/01 10:42:20;;;;;;;;;;;10.20;99.90;;;;;;5021391;28;19925;-88
2023/01/01 10:44:50;;;;;;;;;;;10.20;99.90;;;;;;5006531;28;20398;-90
2023/01/01 10:47:28;;;;;;;;;;;10.30;99.90;;;;;;5000227;28;19929;-86
2023/01/01 10:49:57;;;;;;;;;;;10.30;99.90;;;;;;5003038;28;21254;-87
2023/01/01 10:52:27;;;;;;;;;;;10.30;99.90;;;;;;5020153;28;20027;-89
2023/01/01 10:54:56;;;;;;;;;;;10.30;99.90;;;;;;5000536;28;19996;-88
2023/01/01 10:57:30;;;;;;;;;;;10.40;99.90;;;;;;5013717;28;19929;-92
2023/01/01 11:00:11;;;;;;;;;;;10.40;99.90;;;;;;5007051;28;19926;-89
2023/01/01 11:02:39;;;;;;;;;;;10.40;99.90;;;;;;5019103;28;20055;-88
2023/01/01 11:05:17;;;;;;;;;;;10.40;99.90;;;;;;5017633;28;19983;-87
2023/01/01 11:07:46;;;;;;;;;;;10.40;99.90;;;;;;5008243;28;19940;-92
2023/01/01 11:10:20;;;;;;;;;;;10.50;99.90;;;;;;5012591;28;19933;-92
2023/01/01 11:12:52;;;;;;;;;;;10.50;99.90;;;;;;5015435;28;19956;-89
2023/01/01 11:15:26;;;;;;;;;;;10.60;99.90;;;;;;5027371;28;19936;-88
2023/01/01 11:18:02;;;;;;;;;;;10.60;99.90;;;;;;5012730;28;20016;-88
2023/01/01 11:20:29;;;;;;;;;;;10.70;99.90;;;;;;5017657;28;20031;-88
2023/01/01 11:22:57;;;;;;;;;;;10.70;99.90;;;;;;5003033;28;19944;-86
2023/01/01 11:25:27;;;;;;;;;;;10.80;99.90;;;;;;5001383;28;19929;-86
2023/01/01 11:28:18;;;;;;;;;;;10.80;99.90;;;;;;5005750;28;19933;-85
2023/01/01 11:30:58;;;;;;;;;;;10.80;99.90;;;;;;5003209;28;19996;-86
2023/01/01 11:33:28;;;;;;;;;;;10.80;99.90;;;;;;4998183;28;19940;-86
2023/01/01 11:35:58;;;;;;;;;;;10.80;99.90;;;;;;5021213;28;19940;-89
2023/01/01 11:38:25;;;;;;;;;;;10.80;99.90;;;;;;5012686;28;20430;-87
2023/01/01 11:40:55;;;;;;;;;;;10.80;99.90;;;;;;5021363;28;19925;-91
2023/01/01 11:43:23;;;;;;;;;;;10.80;99.90;;;;;;5009146;28;19925;-90
2023/01/01 11:45:51;;;;;;;;;;;10.90;99.90;;;;;;5001602;28;19932;-89
2023/01/01 11:48:24;;;;;;;;;;;10.90;99.90;;;;;;4985096;28;21061;-92
2023/01/01 11:50:55;;;;;;;;;;;10.90;99.90;;;;;;4999995;28;19937;-86
2023/01/01 11:53:28;;;;;;;;;;;10.90;99.90;;;;;;4999839;28;19979;-85
2023/01/01 11:56:09;;;;;;;;;;;10.90;99.90;;;;;;5000654;28;19937;-83
2023/01/01 11:58:40;;;;;;;;;;;11.00;99.90;;;;;;4993456;28;19988;-84
2023/01/01 12:01:12;;;;;;;;;;;11.10;99.90;;;;;;4994151;28;19978;-83
2023/01/01 12:03:41;;;;;;;;;;;11.20;99.90;;;;;;5008031;28;19925;-81
2023/01/01 12:06:11;;;;;;;;;;;11.30;99.90;;;;;;4999735;28;19973;-80
2023/01/01 12:08:47;;;;;;;;;;;11.30;99.90;;;;;;5000960;28;19944;-81
2023/01/01 12:11:22;;;;;;;;;;;11.40;99.90;;;;;;5000476;28;19936;-82
2023/01/01 12:13:54;;;;;;;;;;;11.40;99.90;;;;;;4996547;28;20424;-81
2023/01/01 12:16:26;;;;;;;;;;;11.50;99.90;;;;;;5012726;28;19933;-81
2023/01/01 12:19:00;;;;;;;;;;;11.50;99.90;;;;;;5000164;28;20307;-83
2023/01/01 12:21:31;;;;;;;;;;;11.40;99.90;;;;;;5007317;28;19971;-82
2023/01/01 12:24:01;;;;;;;;;;;11.40;99.90;;;;;;5009288;28;19925;-82
2023/01/01 12:26:42;;;;;;;;;;;11.40;99.90;;;;;;5024639;28;19941;-82
2023/01/01 12:29:20;;;;;;;;;;;11.30;99.90;;;;;;5008427;28;19983;-82
2023/01/01 12:31:57;;;;;;;;;;;11.30;99.90;;;;;;5020529;28;19925;-82
2023/01/01 12:34:29;;;;;;;;;;;11.30;99.90;;;;;;5010956;28;19925;-82
2023/01/01 12:37:01;;;;;;;;;;;11.30;99.90;;;;;;5010437;28;19929;-81
2023/01/01 12:39:43;;;;;;;;;;;11.30;99.90;;;;;;5009893;28;19933;-82
2023/01/01 12:42:17;;;;;;;;;;;11.30;99.90;;;;;;5023853;28;19929;-82
2023/01/01 12:44:51;;;;;;;;;;;11.30;99.90;;;;;;5015483;28;19937;-82
2023/01/01 12:47:26;;;;;;;;;;;11.30;99.90;;;;;;5015433;28;19925;-83
2023/01/01 12:50:03;;;;;;;;;;;11.30;99.90;;;;;;5006394;28;20472;-82
2023/01/01 12:52:48;;;;;;;;;;;11.30;99.90;;;;;;5014297;28;19934;-81
2023/01/01 12:55:38;;;;;;;;;;;11.30;99.90;;;;;;5014878;28;20459;-82
2023/01/01 12:58:10;;;;;;;;;;;11.40;99.90;;;;;;5011085;28;19925;-82
2023/01/01 13:00:41;;;;;;;;;;;11.30;99.90;;;;;;5006213;28;19985;-82
2023/01/01 13:03:10;;;;;;;;;;;11.40;99.90;;;;;;5009781;28;20005;-82
2023/01/01 13:05:38;;;;;;;;;;;11.40;99.90;;;;;;5016992;28;19925;-83
2023/01/01 13:08:08;;;;;;;;;;;11.40;99.90;;;;;;5009482;28;19957;-82
2023/01/01 13:10:38;;;;;;;;;;;11.30;99.90;;;;;;5016165;28;19933;-83
2023/01/01 13:13:05;;;;;;;;;;;11.30;99.90;;;;;;5017160;28;19929;-82
2023/01/01 13:15:48;;;;;;;;;;;11.40;99.90;;;;;;5010995;28;19926;-83
2023/01/01 13:18:36;;;;;;;;;;;11.40;99.90;;;;;;5013859;28;19980;-82
2023/01/01 13:21:05;;;;;;;;;;;11.40;99.90;;;;;;5032464;28;19988;-82
2023/01/01 13:23:58;;;;;;;;;;;11.40;99.90;;;;;;5011595;28;19976;-82
2023/01/01 13:26:38;;;;;;;;;;;11.40;99.90;;;;;;5010696;28;19984;-81
2023/01/01 13:29:23;;;;;;;;;;;11.40;99.90;;;;;;5016074;28;19929;-81
2023/01/01 13:32:02;;;;;;;;;;;11.40;99.90;;;;;;5014517;28;19929;-82
2023/01/01 13:34:34;;;;;;;;;;;11.40;99.90;;;;;;5009996;28;19940;-82
2023/01/01 13:37:16;;;;;;;;;;;11.50;99.90;;;;;;5025346;28;19934;-83
2023/01/01 13:39:55;;;;;;;;;;;11.50;99.90;;;;;;5003540;28;19933;-82
2023/01/01 13:42:37;;;;;;;;;;;11.50;99.90;;;;;;5014993;28;20318;-82
2023/01/01 13:45:13;;;;;;;;;;;11.50;99.90;;;;;;5012749;28;19930;-82
2023/01/01 13:47:49;;;;;;;;;;;11.50;99.90;;;;;;5011841;28;19997;-82
2023/01/01 13:50:23;;;;;;;;;;;11.50;99.90;;;;;;5011365;28;19926;-82
2023/01/01 13:53:08;;;;;;;;;;;11.50;99.90;;;;;;5011311;28;19926;-82
2023/01/01 13:55:38;;;;;;;;;;;11.50;99.90;;;;;;5011627;28;19937;-82
2023/01/01 13:58:23;;;;;;;;;;;11.50;99.90;;;;;;5024646;28;19933;-83
2023/01/01 14:01:13;;;;;;;;;;;11.50;99.90;;;;;;5015790;28;20371;-82
2023/01/01 14:03:44;;;;;;;;;;;11.50;99.90;;;;;;5031040;28;19942;-82
2023/01/01 14:06:18;;;;;;;;;;;11.50;99.90;;;;;;5012198;28;19925;-82
2023/01/01 14:09:03;;;;;;;;;;;11.50;99.90;;;;;;5008413;28;20005;-82
2023/01/01 14:11:31;;;;;;;;;;;11.60;99.90;;;;;;5012544;28;20430;-82
2023/01/01 14:14:00;;;;;;;;;;;11.60;99.90;;;;;;5007075;28;20016;-82
2023/01/01 14:16:27;;;;;;;;;;;11.60;99.90;;;;;;5010261;28;19969;-82
2023/01/01 14:19:00;;;;;;;;;;;11.60;99.90;;;;;;5024596;28;19968;-82
2023/01/01 14:21:31;;;;;;;;;;;11.60;99.90;;;;;;5003260;28;19933;-82
2023/01/01 14:24:06;;;;;;;;;;;11.60;99.90;;;;;;5008180;28;21968;-82
2023/01/01 14:26:36;;;;;;;;;;;11.60;99.90;;;;;;5004926;28;20319;-81
2023/01/01 14:29:06;;;;;;;;;;;11.60;99.90;;;;;;5009220;28;20386;-82
2023/01/01 14:31:35;;;;;;;;;;;11.60;99.90;;;;;;5010508;28;19933;-83
2023/01/01 14:34:14;;;;;;;;;;;11.60;99.90;;;;;;5005482;28;19933;-82
2023/01/01 14:36:49;;;;;;;;;;;11.70;99.90;;;;;;5012851;28;19965;-82
2023/01/01 14:39:25;;;;;;;;;;;11.70;99.90;;;;;;5007658;28;20335;-82
2023/01/01 14:41:55;;;;;;;;;;;11.70;99.90;;;;;;5012270;28;19930;-82
2023/01/01 14:44:27;;;;;;;;;;;11.70;99.90;;;;;;5004887;28;20319;-82
2023/01/01 14:46:57;;;;;;;;;;;11.70;99.90;;;;;;5011328;28;19948;-81
2023/01/01 14:49:30;;;;;;;;;;;11.70;99.90;;;;;;5008069;28;20422;-82
2023/01/01 14:51:58;;;;;;;;;;;11.70;99.90;;;;;;5007623;28;19935;-82
2023/01/01 14:54:31;;;;;;;;;;;11.70;99.90;;;;;;5011660;28;19964;-82
2023/01/01 14:56:59;;;;;;;;;;;11.70;99.90;;;;;;5022218;28;20438;-81
2023/01/01 14:59:27;;;;;;;;;;;11.70;99.90;;;;;;5034677;28;19929;-82
2023/01/01 15:02:01;;;;;;;;;;;11.70;99.90;;;;;;5009348;28;19926;-81